createdAt,value
2018-06-22T10:34:46.260Z,23.748169
2018-06-22T10:34:49.678Z,23.75824
2018-06-22T10:34:53.079Z,23.75824
2018-06-22T10:34:56.487Z,23.778381
2018-06-22T10:34:59.871Z,23.75824
2018-06-22T10:35:03.260Z,23.778381
2018-06-22T10:35:06.635Z,23.778381
2018-06-22T10:35:10.034Z,23.788452
2018-06-22T10:35:13.464Z,23.778381
2018-06-22T10:35:16.859Z,23.788452
2018-06-22T10:35:20.241Z,23.778381
2018-06-22T10:35:23.620Z,23.778381
2018-06-22T10:35:27.014Z,23.778381
2018-06-22T10:35:30.430Z,23.75824
2018-06-22T10:35:33.911Z,23.75824
2018-06-22T10:35:37.304Z,23.75824
2018-06-22T10:35:40.713Z,23.75824
2018-06-22T10:35:44.096Z,23.75824
2018-06-22T10:35:47.471Z,23.75824
2018-06-22T10:35:50.870Z,23.75824
2018-06-22T10:35:54.353Z,23.748169
2018-06-22T10:35:58.664Z,23.748169
2018-06-22T10:36:02.036Z,23.748169
2018-06-22T10:36:05.431Z,23.728027
2018-06-22T10:36:08.820Z,23.728027
2018-06-22T10:36:12.224Z,23.748169
2018-06-22T10:36:15.620Z,23.748169
2018-06-22T10:36:19.013Z,23.728027
2018-06-22T10:36:22.398Z,23.728027
2018-06-22T10:36:25.832Z,23.728027
2018-06-22T10:36:29.222Z,23.728027
2018-06-22T10:36:33.390Z,23.717957
2018-06-22T10:36:36.869Z,23.717957
2018-06-22T10:36:40.270Z,23.717957
2018-06-22T10:36:43.740Z,23.717957
2018-06-22T10:36:47.144Z,23.717957
2018-06-22T10:36:50.560Z,23.697815
2018-06-22T10:36:53.969Z,23.717957
2018-06-22T10:36:57.364Z,23.697815
2018-06-22T10:37:01.752Z,23.717957
2018-06-22T10:37:06.073Z,23.697815
2018-06-22T10:37:09.447Z,23.717957
2018-06-22T10:37:12.838Z,23.687744
2018-06-22T10:37:16.240Z,23.697815
2018-06-22T10:37:19.613Z,23.697815
2018-06-22T10:37:23.021Z,23.697815
2018-06-22T10:37:26.444Z,23.697815
2018-06-22T10:37:30.711Z,23.697815
2018-06-22T10:37:34.116Z,23.687744
2018-06-22T10:37:37.519Z,23.697815
2018-06-22T10:37:40.907Z,23.697815
2018-06-22T10:37:44.555Z,23.697815
2018-06-22T10:37:47.938Z,23.697815
2018-06-22T10:37:51.321Z,23.687744
2018-06-22T10:37:54.702Z,23.697815
2018-06-22T10:37:58.101Z,23.687744
2018-06-22T10:38:01.506Z,23.697815
2018-06-22T10:38:04.894Z,23.697815
2018-06-22T10:38:08.267Z,23.687744
2018-06-22T10:38:11.659Z,23.697815
2018-06-22T10:38:15.042Z,23.697815
2018-06-22T10:38:18.417Z,23.697815
2018-06-22T10:38:21.808Z,23.687744
2018-06-22T10:38:25.198Z,23.687744
2018-06-22T10:38:28.607Z,23.687744
2018-06-22T10:38:31.983Z,23.697815
2018-06-22T10:38:35.363Z,23.697815
2018-06-22T10:38:38.781Z,23.697815
2018-06-22T10:38:42.165Z,23.697815
2018-06-22T10:38:45.544Z,23.697815
2018-06-22T10:38:48.940Z,23.697815
2018-06-22T10:38:52.341Z,23.697815
2018-06-22T10:38:55.819Z,23.687744
2018-06-22T10:38:59.225Z,23.697815
2018-06-22T10:39:02.639Z,23.687744
2018-06-22T10:39:06.098Z,23.687744
2018-06-22T10:39:09.594Z,23.687744
2018-06-22T10:39:13.000Z,23.687744
2018-06-22T10:39:16.383Z,23.687744
2018-06-22T10:39:19.795Z,23.677673
2018-06-22T10:39:23.167Z,23.687744
2018-06-22T10:39:26.544Z,23.687744
2018-06-22T10:39:30.122Z,23.677673
2018-06-22T10:39:33.717Z,23.687744
2018-06-22T10:39:37.131Z,23.677673
2018-06-22T10:39:40.738Z,23.677673
2018-06-22T10:39:44.498Z,23.687744
2018-06-22T10:39:48.091Z,23.657532
2018-06-22T10:39:51.861Z,23.657532
2018-06-22T10:39:55.264Z,23.657532
2018-06-22T10:39:58.793Z,23.677673
2018-06-22T10:40:02.337Z,23.677673
2018-06-22T10:40:06.057Z,23.677673
2018-06-22T10:40:09.619Z,23.677673
2018-06-22T10:40:13.242Z,23.677673
2018-06-22T10:40:16.956Z,23.687744
2018-06-22T10:40:20.686Z,23.677673
2018-06-22T10:40:24.255Z,23.687744
2018-06-22T10:40:27.839Z,23.687744
2018-06-22T10:40:31.462Z,23.687744
2018-06-22T10:40:35.024Z,23.697815
2018-06-22T10:40:38.744Z,23.687744
2018-06-22T10:40:42.237Z,23.687744
2018-06-22T10:40:45.971Z,23.687744
2018-06-22T10:40:49.709Z,23.697815
2018-06-22T10:40:53.441Z,23.697815
2018-06-22T10:40:57.057Z,23.697815
2018-06-22T10:41:00.496Z,23.687744
2018-06-22T10:41:03.882Z,23.697815
2018-06-22T10:41:07.438Z,23.687744
2018-06-22T10:41:11.183Z,23.697815
2018-06-22T10:41:14.942Z,23.687744
2018-06-22T10:41:18.575Z,23.697815
2018-06-22T10:41:22.161Z,23.717957
2018-06-22T10:41:25.734Z,23.697815
2018-06-22T10:41:29.300Z,23.697815
2018-06-22T10:41:33.050Z,23.697815
2018-06-22T10:41:36.566Z,23.697815
2018-06-22T10:41:40.111Z,23.697815
2018-06-22T10:41:43.661Z,23.697815
2018-06-22T10:41:47.223Z,23.717957
2018-06-22T10:41:50.957Z,23.717957
2018-06-22T10:41:55.466Z,23.717957
2018-06-22T10:41:58.916Z,23.717957
2018-06-22T10:42:03.449Z,23.728027
2018-06-22T10:42:07.169Z,23.728027
2018-06-22T10:42:10.789Z,23.748169
2018-06-22T10:42:14.543Z,23.728027
2018-06-22T10:42:18.108Z,23.728027
2018-06-22T10:42:21.826Z,23.748169
2018-06-22T10:42:25.244Z,23.748169
2018-06-22T10:42:29.001Z,23.748169
2018-06-22T10:42:32.397Z,23.728027
2018-06-22T10:42:35.828Z,23.728027
2018-06-22T10:42:39.216Z,23.748169
2018-06-22T10:42:42.601Z,23.748169
2018-06-22T10:42:46.207Z,23.728027
2018-06-22T10:42:49.916Z,23.728027
2018-06-22T10:42:53.349Z,23.728027
2018-06-22T10:42:57.837Z,23.728027
2018-06-22T10:43:01.584Z,23.728027
2018-06-22T10:43:05.132Z,23.728027
2018-06-22T10:43:08.884Z,23.748169
2018-06-22T10:43:12.444Z,23.728027
2018-06-22T10:43:15.996Z,23.717957
2018-06-22T10:43:19.589Z,23.728027
2018-06-22T10:43:23.151Z,23.728027
2018-06-22T10:43:26.783Z,23.728027
2018-06-22T10:43:30.374Z,23.728027
2018-06-22T10:43:34.176Z,23.728027
2018-06-22T10:43:37.567Z,23.728027
2018-06-22T10:43:40.941Z,23.717957
2018-06-22T10:43:44.345Z,23.728027
2018-06-22T10:43:47.739Z,23.728027
2018-06-22T10:43:51.123Z,23.728027
2018-06-22T10:43:54.517Z,23.717957
2018-06-22T10:43:57.916Z,23.717957
2018-06-22T10:44:01.315Z,23.697815
2018-06-22T10:44:04.709Z,23.717957
2018-06-22T10:44:09.048Z,23.697815
2018-06-22T10:44:13.376Z,23.697815
2018-06-22T10:44:16.755Z,23.697815
2018-06-22T10:44:20.169Z,23.687744
2018-06-22T10:44:24.526Z,23.697815
2018-06-22T10:44:27.907Z,23.687744
2018-06-22T10:44:32.252Z,23.697815
2018-06-22T10:44:37.473Z,23.697815
2018-06-22T10:44:42.091Z,23.697815
2018-06-22T10:44:45.458Z,23.697815
2018-06-22T10:44:48.872Z,23.697815
2018-06-22T10:44:52.456Z,23.717957
2018-06-22T10:44:55.844Z,23.717957
2018-06-22T10:44:59.602Z,23.697815
2018-06-22T10:45:03.143Z,23.697815
2018-06-22T10:45:06.732Z,23.697815
2018-06-22T10:45:10.129Z,23.717957
2018-06-22T10:45:13.849Z,23.717957
2018-06-22T10:45:17.628Z,23.697815
2018-06-22T10:45:21.083Z,23.717957
2018-06-22T10:45:24.708Z,23.697815
2018-06-22T10:45:28.247Z,23.717957
2018-06-22T10:45:31.680Z,23.697815
2018-06-22T10:45:35.080Z,23.717957
2018-06-22T10:45:38.829Z,23.717957
2018-06-22T10:45:42.395Z,23.697815
2018-06-22T10:45:45.939Z,23.717957
2018-06-22T10:45:49.538Z,23.697815
2018-06-22T10:45:52.922Z,23.717957
2018-06-22T10:45:56.536Z,23.697815
2018-06-22T10:46:00.122Z,23.697815
2018-06-22T10:46:03.682Z,23.717957
2018-06-22T10:46:07.399Z,23.717957
2018-06-22T10:46:11.099Z,23.717957
2018-06-22T10:46:14.855Z,23.717957
2018-06-22T10:46:18.416Z,23.717957
2018-06-22T10:46:22.149Z,23.717957
2018-06-22T10:46:25.896Z,23.717957
2018-06-22T10:46:29.470Z,23.728027
2018-06-22T10:46:33.015Z,23.717957
2018-06-22T10:46:36.767Z,23.717957
2018-06-22T10:46:41.125Z,23.697815
2018-06-22T10:46:44.778Z,23.717957
2018-06-22T10:46:48.475Z,23.717957
2018-06-22T10:46:52.039Z,23.717957
2018-06-22T10:46:55.644Z,23.717957
2018-06-22T10:46:59.048Z,23.697815
2018-06-22T10:47:02.778Z,23.728027
2018-06-22T10:47:06.329Z,23.717957
2018-06-22T10:47:10.077Z,23.717957
2018-06-22T10:47:13.442Z,23.717957
2018-06-22T10:47:16.996Z,23.717957
2018-06-22T10:47:20.565Z,23.717957
2018-06-22T10:47:24.275Z,23.717957
2018-06-22T10:47:27.634Z,23.697815
2018-06-22T10:47:31.356Z,23.697815
2018-06-22T10:47:34.753Z,23.697815
2018-06-22T10:47:38.131Z,23.697815
2018-06-22T10:47:41.678Z,23.697815
2018-06-22T10:47:45.207Z,23.717957
2018-06-22T10:47:49.846Z,23.697815
2018-06-22T10:47:53.396Z,23.697815
2018-06-22T10:47:56.951Z,23.697815
2018-06-22T10:48:01.633Z,23.717957
2018-06-22T10:48:05.230Z,23.717957
2018-06-22T10:48:08.941Z,23.697815
2018-06-22T10:48:12.677Z,23.697815
2018-06-22T10:48:16.756Z,23.687744
2018-06-22T10:48:20.475Z,23.687744
2018-06-22T10:48:23.851Z,23.697815
2018-06-22T10:48:27.295Z,23.697815
2018-06-22T10:48:30.902Z,23.697815
2018-06-22T10:48:34.605Z,23.687744
2018-06-22T10:48:38.356Z,23.697815
2018-06-22T10:48:42.086Z,23.687744
2018-06-22T10:48:45.807Z,23.687744
2018-06-22T10:48:49.560Z,23.677673
2018-06-22T10:48:53.255Z,23.687744
2018-06-22T10:48:57.782Z,23.687744
2018-06-22T10:49:01.564Z,23.677673
2018-06-22T10:49:06.322Z,23.687744
2018-06-22T10:49:09.925Z,23.677673
2018-06-22T10:49:13.504Z,23.687744
2018-06-22T10:49:17.034Z,23.677673
2018-06-22T10:49:20.771Z,23.687744
2018-06-22T10:49:24.495Z,23.687744
2018-06-22T10:49:28.171Z,23.687744
2018-06-22T10:49:32.766Z,23.687744
2018-06-22T10:49:36.230Z,23.687744
2018-06-22T10:49:39.887Z,23.687744
2018-06-22T10:49:43.282Z,23.677673
2018-06-22T10:49:47.030Z,23.677673
2018-06-22T10:49:51.407Z,23.677673
2018-06-22T10:49:54.992Z,23.677673
2018-06-22T10:49:58.631Z,23.677673
2018-06-22T10:50:02.353Z,23.657532
2018-06-22T10:50:06.081Z,23.677673
2018-06-22T10:50:09.809Z,23.677673
2018-06-22T10:50:13.361Z,23.657532
2018-06-22T10:50:17.000Z,23.657532
2018-06-22T10:50:20.296Z,23.657532
2018-06-22T10:50:35.024Z,23.657532
2018-06-22T10:50:48.841Z,23.647461
2018-06-22T10:51:02.667Z,23.647461
2018-06-22T10:51:16.599Z,23.647461
2018-06-22T10:51:30.374Z,23.647461
2018-06-22T10:51:44.743Z,23.657532
2018-06-22T10:51:58.783Z,23.657532
2018-06-22T10:52:12.631Z,23.657532
2018-06-22T10:52:27.280Z,23.657532
2018-06-22T10:52:41.210Z,23.657532
2018-06-22T10:52:55.591Z,23.687744
2018-06-22T10:53:10.274Z,23.687744
2018-06-22T10:53:24.014Z,23.687744
2018-06-22T10:53:38.058Z,23.687744
2018-06-22T10:53:51.955Z,23.717957
2018-06-22T10:54:05.900Z,23.697815
2018-06-22T10:54:19.628Z,23.697815
2018-06-22T10:54:33.385Z,23.728027
2018-06-22T10:55:50.613Z,23.848877
2018-06-22T10:56:04.364Z,23.848877
2018-06-22T10:56:17.971Z,23.848877
2018-06-22T10:56:31.359Z,23.848877
2018-06-22T10:56:45.740Z,23.869019
2018-06-22T10:56:59.111Z,23.899231
2018-06-22T10:57:12.496Z,23.879089
2018-06-22T10:57:25.908Z,23.899231
2018-06-22T10:57:39.296Z,23.879089
2018-06-22T10:57:52.703Z,23.879089
2018-06-22T10:58:06.101Z,23.869019
2018-06-22T10:58:19.999Z,23.848877
2018-06-22T10:58:33.734Z,23.838806
2018-06-22T10:58:48.464Z,23.848877
2018-06-22T10:59:02.251Z,23.838806
2018-06-22T10:59:15.982Z,23.838806
2018-06-22T10:59:29.733Z,23.838806
2018-06-22T10:59:43.611Z,23.869019
2018-06-22T10:59:58.090Z,23.869019
2018-06-22T11:00:11.789Z,23.838806
2018-06-22T11:00:25.492Z,23.848877
2018-06-22T11:00:39.205Z,23.838806
2018-06-22T11:00:53.625Z,23.828735
2018-06-22T11:01:07.344Z,23.788452
2018-06-22T11:01:20.911Z,23.798523
2018-06-22T11:01:34.535Z,23.788452
2018-06-22T11:01:48.217Z,23.788452
2018-06-22T11:02:01.898Z,23.788452
2018-06-22T11:02:15.613Z,23.778381
2018-06-22T11:02:29.161Z,23.778381
2018-06-22T11:02:42.892Z,23.778381
2018-06-22T11:02:56.601Z,23.75824
2018-06-22T11:03:10.330Z,23.748169
2018-06-22T11:03:23.967Z,23.75824
2018-06-22T11:03:37.707Z,23.778381
2018-06-22T11:03:51.258Z,23.75824
2018-06-22T11:04:04.831Z,23.75824
2018-06-22T11:04:19.228Z,23.75824
2018-06-22T11:04:33.105Z,23.748169
2018-06-22T11:04:46.685Z,23.748169
2018-06-22T11:05:00.440Z,23.748169
2018-06-22T11:05:15.140Z,23.728027
2018-06-22T11:05:28.889Z,23.748169
2018-06-22T11:05:42.677Z,23.75824
2018-06-22T11:05:56.346Z,23.75824
2018-06-22T11:06:10.058Z,23.75824
2018-06-22T11:06:23.571Z,23.75824
2018-06-22T11:06:37.535Z,23.748169
2018-06-22T11:06:51.319Z,23.75824
2018-06-22T11:07:04.906Z,23.75824
2018-06-22T11:07:18.700Z,23.778381
2018-06-22T11:07:32.437Z,23.75824
2018-06-22T11:07:45.975Z,23.75824
2018-06-22T11:07:59.908Z,23.728027
2018-06-22T11:08:13.633Z,23.748169
2018-06-22T11:08:26.980Z,23.728027
2018-06-22T11:08:40.868Z,23.728027
2018-06-22T11:08:54.448Z,23.728027
2018-06-22T11:09:08.173Z,23.717957
2018-06-22T11:09:22.069Z,23.697815
2018-06-22T11:09:36.492Z,23.697815
2018-06-22T11:09:50.024Z,23.677673
2018-06-22T11:10:03.733Z,23.677673
2018-06-22T11:10:17.637Z,23.657532
2018-06-22T11:10:31.366Z,23.677673
2018-06-22T11:10:45.133Z,23.657532
